sensor_id;sensor_type;location;lat;lon;timestamp;temperature;humidity
62581;DHT22;48640;48.770;9.148;2022-12-18T00:00:45;-4.90;96.20
62581;DHT22;48640;48.770;9.148;2022-12-18T00:03:13;-4.90;96.40
62581;DHT22;48640;48.770;9.148;2022-12-18T00:05:46;-5.50;95.90
62581;DHT22;48640;48.770;9.148;2022-12-18T00:08:14;-5.20;96.60
62581;DHT22;48640;48.770;9.148;2022-12-18T00:10:42;-5.30;96.00
62581;DHT22;48640;48.770;9.148;2022-12-18T00:13:09;-5.30;95.60
62581;DHT22;48640;48.770;9.148;2022-12-18T00:15:36;-5.30;95.80
62581;DHT22;48640;48.770;9.148;2022-12-18T00:18:03;-5.30;95.60
62581;DHT22;48640;48.770;9.148;2022-12-18T00:20:30;-4.90;95.90
62581;DHT22;48640;48.770;9.148;2022-12-18T00:22:57;-5.10;95.80
62581;DHT22;48640;48.770;9.148;2022-12-18T00:25:24;-5.40;95.70
62581;DHT22;48640;48.770;9.148;2022-12-18T00:27:52;-5.40;95.60
62581;DHT22;48640;48.770;9.148;2022-12-18T00:30:19;-5.20;95.90
62581;DHT22;48640;48.770;9.148;2022-12-18T00:32:46;-5.00;95.90
62581;DHT22;48640;48.770;9.148;2022-12-18T00:35:12;-5.20;95.90
62581;DHT22;48640;48.770;9.148;2022-12-18T00:37:39;-5.70;95.70
62581;DHT22;48640;48.770;9.148;2022-12-18T00:40:07;-5.00;96.30
62581;DHT22;48640;48.770;9.148;2022-12-18T00:42:34;-4.90;96.40
62581;DHT22;48640;48.770;9.148;2022-12-18T00:45:19;-5.20;96.50
62581;DHT22;48640;48.770;9.148;2022-12-18T00:47:46;-5.00;96.20
62581;DHT22;48640;48.770;9.148;2022-12-18T00:50:13;-5.20;96.20
62581;DHT22;48640;48.770;9.148;2022-12-18T00:52:39;-5.30;96.30
62581;DHT22;48640;48.770;9.148;2022-12-18T00:55:07;-5.20;96.40
62581;DHT22;48640;48.770;9.148;2022-12-18T00:57:34;-5.40;96.10
62581;DHT22;48640;48.770;9.148;2022-12-18T01:00:00;-5.90;95.70
62581;DHT22;48640;48.770;9.148;2022-12-18T01:02:28;-5.30;95.90
62581;DHT22;48640;48.770;9.148;2022-12-18T01:04:55;-5.20;96.00
62581;DHT22;48640;48.770;9.148;2022-12-18T01:07:22;-5.10;96.10
62581;DHT22;48640;48.770;9.148;2022-12-18T01:09:49;-5.10;96.10
62581;DHT22;48640;48.770;9.148;2022-12-18T01:12:15;-5.20;96.00
62581;DHT22;48640;48.770;9.148;2022-12-18T01:14:42;-5.70;95.90
62581;DHT22;48640;48.770;9.148;2022-12-18T01:17:09;-5.30;96.10
62581;DHT22;48640;48.770;9.148;2022-12-18T01:19:37;-5.90;95.60
62581;DHT22;48640;48.770;9.148;2022-12-18T01:22:04;-5.20;96.10
62581;DHT22;48640;48.770;9.148;2022-12-18T01:24:30;-5.30;96.00
62581;DHT22;48640;48.770;9.148;2022-12-18T01:26:57;-5.70;96.30
62581;DHT22;48640;48.770;9.148;2022-12-18T01:29:24;-5.30;96.40
62581;DHT22;48640;48.770;9.148;2022-12-18T01:31:50;-5.60;96.30
62581;DHT22;48640;48.770;9.148;2022-12-18T01:34:17;-5.20;96.50
62581;DHT22;48640;48.770;9.148;2022-12-18T01:36:45;-5.60;96.20
62581;DHT22;48640;48.770;9.148;2022-12-18T01:39:14;-5.10;96.30
62581;DHT22;48640;48.770;9.148;2022-12-18T01:41:41;-5.80;95.80
62581;DHT22;48640;48.770;9.148;2022-12-18T01:44:50;-5.20;96.20
62581;DHT22;48640;48.770;9.148;2022-12-18T01:47:23;-5.30;96.50
62581;DHT22;48640;48.770;9.148;2022-12-18T01:49:50;-5.50;96.50
62581;DHT22;48640;48.770;9.148;2022-12-18T01:52:20;-5.40;96.20
62581;DHT22;48640;48.770;9.148;2022-12-18T01:54:49;-5.00;96.20
62581;DHT22;48640;48.770;9.148;2022-12-18T01:57:16;-5.10;96.20
62581;DHT22;48640;48.770;9.148;2022-12-18T01:59:45;-5.10;96.20
62581;DHT22;48640;48.770;9.148;2022-12-18T02:02:14;-5.00;96.20
62581;DHT22;48640;48.770;9.148;2022-12-18T02:04:42;-5.30;95.90
62581;DHT22;48640;48.770;9.148;2022-12-18T02:07:14;-5.20;95.90
62581;DHT22;48640;48.770;9.148;2022-12-18T02:09:47;-5.30;96.20
62581;DHT22;48640;48.770;9.148;2022-12-18T02:12:19;-5.40;95.70
62581;DHT22;48640;48.770;9.148;2022-12-18T02:14:53;-5.00;95.80
62581;DHT22;48640;48.770;9.148;2022-12-18T02:17:23;-4.90;96.00
62581;DHT22;48640;48.770;9.148;2022-12-18T02:20:04;-5.00;95.90
62581;DHT22;48640;48.770;9.148;2022-12-18T02:22:39;-5.00;96.20
62581;DHT22;48640;48.770;9.148;2022-12-18T02:25:21;-4.80;95.30
62581;DHT22;48640;48.770;9.148;2022-12-18T02:27:52;-5.20;95.30
62581;DHT22;48640;48.770;9.148;2022-12-18T02:30:20;-5.20;94.90
62581;DHT22;48640;48.770;9.148;2022-12-18T02:32:50;-5.10;94.80
62581;DHT22;48640;48.770;9.148;2022-12-18T02:35:22;-5.30;94.50
62581;DHT22;48640;48.770;9.148;2022-12-18T02:37:51;-5.00;94.60
62581;DHT22;48640;48.770;9.148;2022-12-18T02:40:19;-5.10;94.60
62581;DHT22;48640;48.770;9.148;2022-12-18T02:42:47;-5.50;94.70
62581;DHT22;48640;48.770;9.148;2022-12-18T02:45:15;-5.20;94.90
62581;DHT22;48640;48.770;9.148;2022-12-18T02:47:44;-5.50;94.50
62581;DHT22;48640;48.770;9.148;2022-12-18T02:50:18;-4.90;94.60
62581;DHT22;48640;48.770;9.148;2022-12-18T02:52:54;-5.40;94.30
62581;DHT22;48640;48.770;9.148;2022-12-18T02:55:30;-5.10;94.70
62581;DHT22;48640;48.770;9.148;2022-12-18T02:58:03;-5.50;94.40
62581;DHT22;48640;48.770;9.148;2022-12-18T03:00:38;-5.50;94.50
62581;DHT22;48640;48.770;9.148;2022-12-18T03:03:08;-5.30;94.60
62581;DHT22;48640;48.770;9.148;2022-12-18T03:05:36;-5.30;94.30
62581;DHT22;48640;48.770;9.148;2022-12-18T03:08:08;-5.60;94.40
62581;DHT22;48640;48.770;9.148;2022-12-18T03:10:40;-5.40;94.60
62581;DHT22;48640;48.770;9.148;2022-12-18T03:13:13;-5.90;94.60
62581;DHT22;48640;48.770;9.148;2022-12-18T03:15:45;-5.60;94.60
62581;DHT22;48640;48.770;9.148;2022-12-18T03:18:16;-5.80;94.60
62581;DHT22;48640;48.770;9.148;2022-12-18T03:20:44;-5.80;94.80
62581;DHT22;48640;48.770;9.148;2022-12-18T03:23:15;-5.30;95.00
62581;DHT22;48640;48.770;9.148;2022-12-18T03:25:44;-5.30;95.10
62581;DHT22;48640;48.770;9.148;2022-12-18T03:28:13;-5.30;94.90
62581;DHT22;48640;48.770;9.148;2022-12-18T03:30:44;-5.30;94.50
62581;DHT22;48640;48.770;9.148;2022-12-18T03:33:15;-5.30;94.30
62581;DHT22;48640;48.770;9.148;2022-12-18T03:35:45;-5.40;93.90
62581;DHT22;48640;48.770;9.148;2022-12-18T03:38:12;-6.00;93.90
62581;DHT22;48640;48.770;9.148;2022-12-18T03:40:48;-5.50;94.00
62581;DHT22;48640;48.770;9.148;2022-12-18T03:43:20;-5.70;94.20
62581;DHT22;48640;48.770;9.148;2022-12-18T03:45:57;-5.60;94.30
62581;DHT22;48640;48.770;9.148;2022-12-18T03:48:31;-5.70;94.30
62581;DHT22;48640;48.770;9.148;2022-12-18T03:51:05;-5.80;94.00
62581;DHT22;48640;48.770;9.148;2022-12-18T03:53:37;-6.20;94.10
62581;DHT22;48640;48.770;9.148;2022-12-18T03:56:07;-6.10;93.80
62581;DHT22;48640;48.770;9.148;2022-12-18T03:58:36;-6.20;93.80
62581;DHT22;48640;48.770;9.148;2022-12-18T04:01:07;-5.90;93.80
62581;DHT22;48640;48.770;9.148;2022-12-18T04:03:35;-6.00;93.80
62581;DHT22;48640;48.770;9.148;2022-12-18T04:06:03;-6.10;93.60
62581;DHT22;48640;48.770;9.148;2022-12-18T04:08:31;-5.90;93.70
62581;DHT22;48640;48.770;9.148;2022-12-18T04:11:00;-6.10;93.70
62581;DHT22;48640;48.770;9.148;2022-12-18T04:13:29;-6.00;93.80
62581;DHT22;48640;48.770;9.148;2022-12-18T04:15:56;-6.60;93.50
62581;DHT22;48640;48.770;9.148;2022-12-18T04:18:24;-6.40;93.70
62581;DHT22;48640;48.770;9.148;2022-12-18T04:20:51;-6.30;93.90
62581;DHT22;48640;48.770;9.148;2022-12-18T04:23:17;-6.50;93.90
62581;DHT22;48640;48.770;9.148;2022-12-18T04:25:45;-6.60;93.80
62581;DHT22;48640;48.770;9.148;2022-12-18T04:28:13;-6.30;94.00
62581;DHT22;48640;48.770;9.148;2022-12-18T04:30:39;-6.30;94.00
62581;DHT22;48640;48.770;9.148;2022-12-18T04:33:09;-6.40;94.00
62581;DHT22;48640;48.770;9.148;2022-12-18T04:35:37;-6.40;94.10
62581;DHT22;48640;48.770;9.148;2022-12-18T04:38:05;-6.40;94.00
62581;DHT22;48640;48.770;9.148;2022-12-18T04:40:32;-6.40;94.00
62581;DHT22;48640;48.770;9.148;2022-12-18T04:42:59;-6.50;93.80
62581;DHT22;48640;48.770;9.148;2022-12-18T04:45:26;-6.40;93.90
62581;DHT22;48640;48.770;9.148;2022-12-18T04:47:52;-6.40;93.80
62581;DHT22;48640;48.770;9.148;2022-12-18T04:50:19;-6.40;93.90
62581;DHT22;48640;48.770;9.148;2022-12-18T04:52:47;-6.50;93.90
62581;DHT22;48640;48.770;9.148;2022-12-18T04:55:14;-6.50;94.10
62581;DHT22;48640;48.770;9.148;2022-12-18T04:57:41;-6.40;94.00
62581;DHT22;48640;48.770;9.148;2022-12-18T05:00:09;-6.40;93.90
62581;DHT22;48640;48.770;9.148;2022-12-18T05:02:36;-6.40;93.80
62581;DHT22;48640;48.770;9.148;2022-12-18T05:05:03;-6.50;93.60
62581;DHT22;48640;48.770;9.148;2022-12-18T05:07:29;-6.50;93.70
62581;DHT22;48640;48.770;9.148;2022-12-18T05:09:58;-6.50;93.40
62581;DHT22;48640;48.770;9.148;2022-12-18T05:12:24;-6.40;93.50
62581;DHT22;48640;48.770;9.148;2022-12-18T05:14:51;-6.40;93.40
62581;DHT22;48640;48.770;9.148;2022-12-18T05:17:18;-6.60;93.20
62581;DHT22;48640;48.770;9.148;2022-12-18T05:19:45;-6.60;93.30
62581;DHT22;48640;48.770;9.148;2022-12-18T05:22:11;-6.50;93.40
62581;DHT22;48640;48.770;9.148;2022-12-18T05:24:38;-6.40;93.10
62581;DHT22;48640;48.770;9.148;2022-12-18T05:27:06;-6.50;92.90
62581;DHT22;48640;48.770;9.148;2022-12-18T05:29:33;-6.50;92.80
62581;DHT22;48640;48.770;9.148;2022-12-18T05:32:00;-6.60;92.70
62581;DHT22;48640;48.770;9.148;2022-12-18T05:34:26;-6.40;93.00
62581;DHT22;48640;48.770;9.148;2022-12-18T05:36:53;-6.40;92.90
62581;DHT22;48640;48.770;9.148;2022-12-18T05:39:20;-6.50;92.90
62581;DHT22;48640;48.770;9.148;2022-12-18T05:41:47;-6.60;92.80
62581;DHT22;48640;48.770;9.148;2022-12-18T05:44:15;-6.70;92.80
62581;DHT22;48640;48.770;9.148;2022-12-18T05:46:41;-6.60;92.80
62581;DHT22;48640;48.770;9.148;2022-12-18T05:49:08;-6.60;92.70
62581;DHT22;48640;48.770;9.148;2022-12-18T05:51:35;-6.80;92.70
62581;DHT22;48640;48.770;9.148;2022-12-18T05:54:02;-6.70;92.80
62581;DHT22;48640;48.770;9.148;2022-12-18T05:56:29;-6.70;92.90
62581;DHT22;48640;48.770;9.148;2022-12-18T05:58:55;-7.00;92.80
62581;DHT22;48640;48.770;9.148;2022-12-18T06:01:26;-7.20;93.40
62581;DHT22;48640;48.770;9.148;2022-12-18T06:03:53;-7.20;93.80
62581;DHT22;48640;48.770;9.148;2022-12-18T06:06:22;-7.00;94.10
62581;DHT22;48640;48.770;9.148;2022-12-18T06:08:49;-7.00;94.10
62581;DHT22;48640;48.770;9.148;2022-12-18T06:11:18;-6.90;93.90
62581;DHT22;48640;48.770;9.148;2022-12-18T06:13:45;-6.80;93.50
62581;DHT22;48640;48.770;9.148;2022-12-18T06:16:12;-6.80;93.40
62581;DHT22;48640;48.770;9.148;2022-12-18T06:18:41;-6.70;93.30
62581;DHT22;48640;48.770;9.148;2022-12-18T06:21:07;-6.70;93.20
62581;DHT22;48640;48.770;9.148;2022-12-18T06:23:34;-6.80;93.20
62581;DHT22;48640;48.770;9.148;2022-12-18T06:26:04;-6.70;93.20
62581;DHT22;48640;48.770;9.148;2022-12-18T06:28:31;-6.70;93.30
62581;DHT22;48640;48.770;9.148;2022-12-18T06:30:58;-6.60;93.40
62581;DHT22;48640;48.770;9.148;2022-12-18T06:33:27;-6.60;93.40
62581;DHT22;48640;48.770;9.148;2022-12-18T06:35:59;-6.60;93.40
62581;DHT22;48640;48.770;9.148;2022-12-18T06:38:26;-6.50;93.30
62581;DHT22;48640;48.770;9.148;2022-12-18T06:40:53;-6.60;93.20
62581;DHT22;48640;48.770;9.148;2022-12-18T06:43:20;-6.60;93.00
62581;DHT22;48640;48.770;9.148;2022-12-18T06:45:47;-6.80;93.10
62581;DHT22;48640;48.770;9.148;2022-12-18T06:48:18;-6.80;93.30
62581;DHT22;48640;48.770;9.148;2022-12-18T06:50:44;-6.90;93.50
62581;DHT22;48640;48.770;9.148;2022-12-18T06:53:12;-6.90;93.60
62581;DHT22;48640;48.770;9.148;2022-12-18T06:55:39;-6.90;93.40
62581;DHT22;48640;48.770;9.148;2022-12-18T06:58:06;-6.90;93.30
62581;DHT22;48640;48.770;9.148;2022-12-18T07:00:33;-6.90;93.50
62581;DHT22;48640;48.770;9.148;2022-12-18T07:02:59;-6.80;93.60
62581;DHT22;48640;48.770;9.148;2022-12-18T07:05:26;-6.80;93.80
62581;DHT22;48640;48.770;9.148;2022-12-18T07:07:53;-6.80;94.00
62581;DHT22;48640;48.770;9.148;2022-12-18T07:10:21;-6.70;94.30
62581;DHT22;48640;48.770;9.148;2022-12-18T07:12:48;-6.70;94.30
62581;DHT22;48640;48.770;9.148;2022-12-18T07:15:15;-6.60;94.50
62581;DHT22;48640;48.770;9.148;2022-12-18T07:17:41;-6.60;94.30
62581;DHT22;48640;48.770;9.148;2022-12-18T07:20:09;-6.50;94.20
62581;DHT22;48640;48.770;9.148;2022-12-18T07:22:36;-6.40;93.80
62581;DHT22;48640;48.770;9.148;2022-12-18T07:25:04;-6.40;93.60
62581;DHT22;48640;48.770;9.148;2022-12-18T07:27:32;-6.40;93.40
62581;DHT22;48640;48.770;9.148;2022-12-18T07:29:59;-6.40;93.40
62581;DHT22;48640;48.770;9.148;2022-12-18T07:32:25;-6.40;93.40
62581;DHT22;48640;48.770;9.148;2022-12-18T07:34:52;-6.40;93.40
62581;DHT22;48640;48.770;9.148;2022-12-18T07:37:19;-6.50;93.40
62581;DHT22;48640;48.770;9.148;2022-12-18T07:39:46;-6.40;93.00
62581;DHT22;48640;48.770;9.148;2022-12-18T07:42:12;-6.50;92.70
62581;DHT22;48640;48.770;9.148;2022-12-18T07:44:59;-6.60;92.90
62581;DHT22;48640;48.770;9.148;2022-12-18T07:47:26;-6.70;93.50
62581;DHT22;48640;48.770;9.148;2022-12-18T07:49:53;-6.60;93.80
62581;DHT22;48640;48.770;9.148;2022-12-18T07:52:20;-6.40;94.00
62581;DHT22;48640;48.770;9.148;2022-12-18T07:54:47;-6.30;93.70
62581;DHT22;48640;48.770;9.148;2022-12-18T07:57:14;-6.20;93.40
62581;DHT22;48640;48.770;9.148;2022-12-18T07:59:41;-6.30;93.20
62581;DHT22;48640;48.770;9.148;2022-12-18T08:02:09;-6.20;93.20
62581;DHT22;48640;48.770;9.148;2022-12-18T08:04:36;-6.20;93.00
62581;DHT22;48640;48.770;9.148;2022-12-18T08:07:03;-6.40;93.50
62581;DHT22;48640;48.770;9.148;2022-12-18T08:09:30;-6.40;94.20
62581;DHT22;48640;48.770;9.148;2022-12-18T08:11:56;-6.30;94.50
62581;DHT22;48640;48.770;9.148;2022-12-18T08:14:23;-6.50;94.70
62581;DHT22;48640;48.770;9.148;2022-12-18T08:16:50;-6.50;95.10
62581;DHT22;48640;48.770;9.148;2022-12-18T08:19:19;-6.40;95.50
62581;DHT22;48640;48.770;9.148;2022-12-18T08:21:45;-6.30;95.80
62581;DHT22;48640;48.770;9.148;2022-12-18T08:24:12;-6.20;95.90
62581;DHT22;48640;48.770;9.148;2022-12-18T08:26:39;-6.10;96.00
62581;DHT22;48640;48.770;9.148;2022-12-18T08:29:05;-6.00;95.90
62581;DHT22;48640;48.770;9.148;2022-12-18T08:31:32;-5.90;95.90
62581;DHT22;48640;48.770;9.148;2022-12-18T08:33:59;-5.70;95.90
62581;DHT22;48640;48.770;9.148;2022-12-18T08:36:27;-5.60;95.80
62581;DHT22;48640;48.770;9.148;2022-12-18T08:38:54;-5.50;95.80
62581;DHT22;48640;48.770;9.148;2022-12-18T08:41:21;-5.40;95.80
62581;DHT22;48640;48.770;9.148;2022-12-18T08:43:48;-5.30;95.80
62581;DHT22;48640;48.770;9.148;2022-12-18T08:46:35;-5.30;96.10
62581;DHT22;48640;48.770;9.148;2022-12-18T08:49:02;-5.40;96.30
62581;DHT22;48640;48.770;9.148;2022-12-18T08:51:30;-5.30;96.40
62581;DHT22;48640;48.770;9.148;2022-12-18T08:53:57;-5.30;96.20
62581;DHT22;48640;48.770;9.148;2022-12-18T08:56:24;-5.30;96.20
62581;DHT22;48640;48.770;9.148;2022-12-18T08:58:51;-5.30;96.30
62581;DHT22;48640;48.770;9.148;2022-12-18T09:01:18;-5.30;96.40
62581;DHT22;48640;48.770;9.148;2022-12-18T09:03:45;-5.20;96.60
62581;DHT22;48640;48.770;9.148;2022-12-18T09:06:13;-5.10;96.30
62581;DHT22;48640;48.770;9.148;2022-12-18T09:08:42;-5.20;96.20
62581;DHT22;48640;48.770;9.148;2022-12-18T09:11:13;-5.30;96.20
62581;DHT22;48640;48.770;9.148;2022-12-18T09:13:40;-5.20;96.30
62581;DHT22;48640;48.770;9.148;2022-12-18T09:16:07;-5.20;96.40
62581;DHT22;48640;48.770;9.148;2022-12-18T09:18:34;-5.10;96.60
62581;DHT22;48640;48.770;9.148;2022-12-18T09:21:08;-5.10;96.50
62581;DHT22;48640;48.770;9.148;2022-12-18T09:23:35;-5.00;96.40
62581;DHT22;48640;48.770;9.148;2022-12-18T09:26:03;-4.90;96.40
62581;DHT22;48640;48.770;9.148;2022-12-18T09:28:30;-4.90;96.30
62581;DHT22;48640;48.770;9.148;2022-12-18T09:30:56;-4.90;96.40
62581;DHT22;48640;48.770;9.148;2022-12-18T09:33:23;-4.90;96.50
62581;DHT22;48640;48.770;9.148;2022-12-18T09:35:50;-4.90;96.50
62581;DHT22;48640;48.770;9.148;2022-12-18T09:38:19;-4.80;96.60
62581;DHT22;48640;48.770;9.148;2022-12-18T09:40:51;-4.70;96.70
62581;DHT22;48640;48.770;9.148;2022-12-18T09:43:24;-4.60;96.90
62581;DHT22;48640;48.770;9.148;2022-12-18T09:45:56;-4.40;97.50
62581;DHT22;48640;48.770;9.148;2022-12-18T09:48:28;-4.30;97.40
62581;DHT22;48640;48.770;9.148;2022-12-18T09:50:59;-4.30;96.90
62581;DHT22;48640;48.770;9.148;2022-12-18T09:53:31;-4.30;96.60
62581;DHT22;48640;48.770;9.148;2022-12-18T09:56:00;-4.30;96.60
62581;DHT22;48640;48.770;9.148;2022-12-18T09:58:34;-4.30;96.70
62581;DHT22;48640;48.770;9.148;2022-12-18T10:01:06;-4.20;96.80
62581;DHT22;48640;48.770;9.148;2022-12-18T10:03:34;-4.20;96.70
62581;DHT22;48640;48.770;9.148;2022-12-18T10:06:06;-4.10;96.60
62581;DHT22;48640;48.770;9.148;2022-12-18T10:08:40;-4.00;96.90
62581;DHT22;48640;48.770;9.148;2022-12-18T10:11:22;-4.00;96.60
62581;DHT22;48640;48.770;9.148;2022-12-18T10:13:55;-3.80;96.60
62581;DHT22;48640;48.770;9.148;2022-12-18T10:16:29;-3.80;96.40
62581;DHT22;48640;48.770;9.148;2022-12-18T10:19:14;-3.70;96.30
62581;DHT22;48640;48.770;9.148;2022-12-18T10:21:49;-3.60;96.00
62581;DHT22;48640;48.770;9.148;2022-12-18T10:24:24;-3.60;96.00
62581;DHT22;48640;48.770;9.148;2022-12-18T10:26:56;-3.60;96.00
62581;DHT22;48640;48.770;9.148;2022-12-18T10:29:28;-3.50;96.10
62581;DHT22;48640;48.770;9.148;2022-12-18T10:31:55;-3.50;96.00
62581;DHT22;48640;48.770;9.148;2022-12-18T10:34:23;-3.60;96.00
62581;DHT22;48640;48.770;9.148;2022-12-18T10:36:50;-3.50;96.20
62581;DHT22;48640;48.770;9.148;2022-12-18T10:39:18;-3.50;96.40
62581;DHT22;48640;48.770;9.148;2022-12-18T10:41:45;-3.40;96.50
62581;DHT22;48640;48.770;9.148;2022-12-18T10:44:17;-3.20;96.40
62581;DHT22;48640;48.770;9.148;2022-12-18T10:46:46;-3.10;96.20
62581;DHT22;48640;48.770;9.148;2022-12-18T10:49:21;-3.00;96.00
62581;DHT22;48640;48.770;9.148;2022-12-18T10:51:48;-3.10;95.80
62581;DHT22;48640;48.770;9.148;2022-12-18T10:54:17;-3.10;96.10
62581;DHT22;48640;48.770;9.148;2022-12-18T10:56:45;-3.00;96.40
62581;DHT22;48640;48.770;9.148;2022-12-18T10:59:13;-2.80;96.30
62581;DHT22;48640;48.770;9.148;2022-12-18T11:01:50;-2.80;96.00
62581;DHT22;48640;48.770;9.148;2022-12-18T11:04:19;-2.80;96.00
62581;DHT22;48640;48.770;9.148;2022-12-18T11:06:55;-2.70;96.00
62581;DHT22;48640;48.770;9.148;2022-12-18T11:09:24;-2.60;96.00
62581;DHT22;48640;48.770;9.148;2022-12-18T11:11:52;-2.60;96.00
62581;DHT22;48640;48.770;9.148;2022-12-18T11:14:22;-2.50;96.00
62581;DHT22;48640;48.770;9.148;2022-12-18T11:16:51;-2.40;95.80
62581;DHT22;48640;48.770;9.148;2022-12-18T11:19:29;-2.50;95.60
62581;DHT22;48640;48.770;9.148;2022-12-18T11:21:56;-2.40;95.50
62581;DHT22;48640;48.770;9.148;2022-12-18T11:24:27;-2.40;95.40
62581;DHT22;48640;48.770;9.148;2022-12-18T11:26:56;-2.30;95.50
62581;DHT22;48640;48.770;9.148;2022-12-18T11:29:28;-2.20;95.50
62581;DHT22;48640;48.770;9.148;2022-12-18T11:32:25;-2.20;95.20
62581;DHT22;48640;48.770;9.148;2022-12-18T11:34:59;-2.30;95.10
62581;DHT22;48640;48.770;9.148;2022-12-18T11:37:28;-2.30;95.30
62581;DHT22;48640;48.770;9.148;2022-12-18T11:39:57;-2.30;95.20
62581;DHT22;48640;48.770;9.148;2022-12-18T11:42:30;-2.30;95.10
62581;DHT22;48640;48.770;9.148;2022-12-18T11:45:00;-2.30;95.30
62581;DHT22;48640;48.770;9.148;2022-12-18T11:47:43;-2.30;95.30
62581;DHT22;48640;48.770;9.148;2022-12-18T11:50:15;-2.30;95.30
62581;DHT22;48640;48.770;9.148;2022-12-18T11:52:42;-2.30;95.30
62581;DHT22;48640;48.770;9.148;2022-12-18T11:55:12;-2.30;95.30
62581;DHT22;48640;48.770;9.148;2022-12-18T11:57:47;-2.20;95.20
62581;DHT22;48640;48.770;9.148;2022-12-18T12:00:18;-2.30;94.90
62581;DHT22;48640;48.770;9.148;2022-12-18T12:03:06;-2.20;95.00
62581;DHT22;48640;48.770;9.148;2022-12-18T12:05:43;-2.20;95.10
62581;DHT22;48640;48.770;9.148;2022-12-18T12:08:17;-2.20;95.10
62581;DHT22;48640;48.770;9.148;2022-12-18T12:10:56;-2.20;95.10
62581;DHT22;48640;48.770;9.148;2022-12-18T12:13:35;-2.30;95.10
62581;DHT22;48640;48.770;9.148;2022-12-18T12:16:10;-2.20;95.20
62581;DHT22;48640;48.770;9.148;2022-12-18T12:19:01;-2.00;95.10
62581;DHT22;48640;48.770;9.148;2022-12-18T12:21:34;-1.80;94.90
62581;DHT22;48640;48.770;9.148;2022-12-18T12:24:14;-1.90;94.50
62581;DHT22;48640;48.770;9.148;2022-12-18T12:26:49;-2.00;94.60
62581;DHT22;48640;48.770;9.148;2022-12-18T12:29:31;-1.90;94.80
62581;DHT22;48640;48.770;9.148;2022-12-18T12:32:07;-2.00;94.50
62581;DHT22;48640;48.770;9.148;2022-12-18T12:34:47;-2.00;94.50
62581;DHT22;48640;48.770;9.148;2022-12-18T12:37:25;-2.10;94.60
62581;DHT22;48640;48.770;9.148;2022-12-18T12:39:56;-2.00;94.70
62581;DHT22;48640;48.770;9.148;2022-12-18T12:42:32;-2.00;94.50
62581;DHT22;48640;48.770;9.148;2022-12-18T12:45:22;-2.00;94.30
62581;DHT22;48640;48.770;9.148;2022-12-18T12:47:51;-2.00;94.30
62581;DHT22;48640;48.770;9.148;2022-12-18T12:50:21;-1.90;94.40
62581;DHT22;48640;48.770;9.148;2022-12-18T12:52:51;-1.90;94.30
62581;DHT22;48640;48.770;9.148;2022-12-18T12:55:21;-1.80;94.30
62581;DHT22;48640;48.770;9.148;2022-12-18T12:57:55;-1.70;94.20
62581;DHT22;48640;48.770;9.148;2022-12-18T13:00:26;-1.70;93.90
62581;DHT22;48640;48.770;9.148;2022-12-18T13:03:01;-1.70;93.90
62581;DHT22;48640;48.770;9.148;2022-12-18T13:05:38;-1.70;93.90
62581;DHT22;48640;48.770;9.148;2022-12-18T13:08:07;-1.70;93.90
62581;DHT22;48640;48.770;9.148;2022-12-18T13:10:35;-1.70;93.90
62581;DHT22;48640;48.770;9.148;2022-12-18T13:13:04;-1.60;93.90
62581;DHT22;48640;48.770;9.148;2022-12-18T13:15:34;-1.50;93.90
62581;DHT22;48640;48.770;9.148;2022-12-18T13:18:14;-1.30;93.90
62581;DHT22;48640;48.770;9.148;2022-12-18T13:20:45;-1.30;93.60
62581;DHT22;48640;48.770;9.148;2022-12-18T13:23:30;-1.20;93.50
62581;DHT22;48640;48.770;9.148;2022-12-18T13:25:58;-1.10;93.50
62581;DHT22;48640;48.770;9.148;2022-12-18T13:28:50;-0.90;93.50
62581;DHT22;48640;48.770;9.148;2022-12-18T13:34:34;-0.60;92.90
62581;DHT22;48640;48.770;9.148;2022-12-18T13:43:36;-0.60;91.80
62581;DHT22;48640;48.770;9.148;2022-12-18T13:49:00;-0.60;91.60
62581;DHT22;48640;48.770;9.148;2022-12-18T13:51:28;-0.70;91.60
62581;DHT22;48640;48.770;9.148;2022-12-18T13:53:59;-0.70;91.80
62581;DHT22;48640;48.770;9.148;2022-12-18T13:56:27;-0.60;91.90
62581;DHT22;48640;48.770;9.148;2022-12-18T13:59:12;-0.50;91.70
62581;DHT22;48640;48.770;9.148;2022-12-18T14:01:47;-0.60;91.60
62581;DHT22;48640;48.770;9.148;2022-12-18T14:04:25;-0.60;91.60
62581;DHT22;48640;48.770;9.148;2022-12-18T14:06:55;-0.60;91.80
62581;DHT22;48640;48.770;9.148;2022-12-18T14:09:24;-0.70;91.90
62581;DHT22;48640;48.770;9.148;2022-12-18T14:11:52;-0.60;92.10
62581;DHT22;48640;48.770;9.148;2022-12-18T14:14:44;-0.60;91.90
62581;DHT22;48640;48.770;9.148;2022-12-18T14:17:13;-0.80;91.90
62581;DHT22;48640;48.770;9.148;2022-12-18T14:19:45;-0.70;92.40
62581;DHT22;48640;48.770;9.148;2022-12-18T14:22:17;-0.80;92.40
62581;DHT22;48640;48.770;9.148;2022-12-18T14:24:45;-0.90;92.90
62581;DHT22;48640;48.770;9.148;2022-12-18T14:27:20;-0.90;92.80
62581;DHT22;48640;48.770;9.148;2022-12-18T14:29:49;-0.80;92.90
62581;DHT22;48640;48.770;9.148;2022-12-18T14:32:17;-0.80;92.90
62581;DHT22;48640;48.770;9.148;2022-12-18T14:34:47;-0.80;92.90
62581;DHT22;48640;48.770;9.148;2022-12-18T14:37:17;-0.90;93.00
62581;DHT22;48640;48.770;9.148;2022-12-18T14:39:55;-0.90;93.00
62581;DHT22;48640;48.770;9.148;2022-12-18T14:47:54;-1.20;93.50
62581;DHT22;48640;48.770;9.148;2022-12-18T14:50:20;-1.10;93.90
62581;DHT22;48640;48.770;9.148;2022-12-18T14:52:47;-1.20;93.90
62581;DHT22;48640;48.770;9.148;2022-12-18T14:55:15;-1.20;94.00
62581;DHT22;48640;48.770;9.148;2022-12-18T14:57:42;-1.20;94.20
62581;DHT22;48640;48.770;9.148;2022-12-18T15:00:16;-1.20;94.20
62581;DHT22;48640;48.770;9.148;2022-12-18T15:02:45;-1.30;94.20
62581;DHT22;48640;48.770;9.148;2022-12-18T15:05:19;-1.30;94.30
62581;DHT22;48640;48.770;9.148;2022-12-18T15:07:48;-1.40;94.40
62581;DHT22;48640;48.770;9.148;2022-12-18T15:10:17;-1.50;94.50
62581;DHT22;48640;48.770;9.148;2022-12-18T15:12:45;-1.50;94.70
62581;DHT22;48640;48.770;9.148;2022-12-18T15:15:44;-1.50;94.80
62581;DHT22;48640;48.770;9.148;2022-12-18T15:18:13;-1.50;94.70
62581;DHT22;48640;48.770;9.148;2022-12-18T15:20:44;-1.60;94.90
62581;DHT22;48640;48.770;9.148;2022-12-18T15:23:16;-1.50;95.00
62581;DHT22;48640;48.770;9.148;2022-12-18T15:25:43;-1.50;95.10
62581;DHT22;48640;48.770;9.148;2022-12-18T15:28:20;-1.60;95.00
62581;DHT22;48640;48.770;9.148;2022-12-18T15:30:59;-1.60;95.10
62581;DHT22;48640;48.770;9.148;2022-12-18T15:33:29;-1.60;95.20
62581;DHT22;48640;48.770;9.148;2022-12-18T15:35:59;-1.80;95.30
62581;DHT22;48640;48.770;9.148;2022-12-18T15:38:26;-1.80;95.60
62581;DHT22;48640;48.770;9.148;2022-12-18T15:40:53;-1.90;95.90
62581;DHT22;48640;48.770;9.148;2022-12-18T15:43:21;-2.00;96.10
62581;DHT22;48640;48.770;9.148;2022-12-18T15:46:02;-2.10;96.30
62581;DHT22;48640;48.770;9.148;2022-12-18T15:48:29;-2.20;96.50
62581;DHT22;48640;48.770;9.148;2022-12-18T15:50:58;-2.20;96.70
62581;DHT22;48640;48.770;9.148;2022-12-18T15:53:27;-2.30;97.10
62581;DHT22;48640;48.770;9.148;2022-12-18T15:55:55;-2.30;97.20
62581;DHT22;48640;48.770;9.148;2022-12-18T15:58:39;-2.30;97.20
62581;DHT22;48640;48.770;9.148;2022-12-18T16:01:08;-2.20;97.10
62581;DHT22;48640;48.770;9.148;2022-12-18T16:03:35;-2.20;97.10
62581;DHT22;48640;48.770;9.148;2022-12-18T16:06:04;-2.30;96.90